Terminal Aerodrome Forecast
Issued by NWS

Home | Current Version | Previous Version | Graphics & Text | Print | Product List | Glossary On
Versions: 1 2 3 4 5 6 7 8 9 10 11 12 13 14 15 16
846
FTUS43 KBIS 211721
TAFJMS
TAF
KJMS 211721Z 2118/2218 12008KT P6SM SCT060
     FM212000 15013KT P6SM BKN080
     FM220100 15006KT P6SM SKC
     FM221500 17006KT P6SM FEW200=

USA.gov is the U.S. government's official web portal to all federal, state and local government web resources and services.